עמוד ראשי
METAR-TAF:

METAR-TAF

שדות תעופה :

Aneityum, ונואטו

קו רוחב: 20-14-57S, קו אורך: 169-46-17E, גובה: 2מטר

תצפית מזג אוויר נוכחית

הדו"ח נערך לפני 3 שעות ו 11דקות, בשעה 09:00 UTC
רוח רגועה
טמפרטורת 20 צלסיוס
לחות 88%
לחץ 1014 hPa
ראות 10 קילומטר או יותר
עננים בינוניים בגובה 2000רגל

METAR: NVVA 150900Z 00000KT 9999 BKN020 20/18 Q1014

זמן: 23:11 (12:11 UTC)

תחזית

הדו"ח נערך לפני 1 שעות ו 11דקות, בשעה 11:00 UTC
תחזית בתוקף מ 15 ב 12 UTC עד 16 ב 12 UTC
רוח 2קשר עם כיוונים משתנים
ראות 10 קילומטר או יותר
עננים פזורים בגובה 2000רגל
עננים בינוניים בגובה 4000רגל
הסתברות 30%
בין IN ו TEUTC
ראות: 9000מטר
עננים בינוניים בגובה 1800רגל
ממטרי גשם קלים,

TAF: NVVA 151100Z 1512/1612 VRB02KT 9999 SCT020 BKN040 PROB30 INTER 1512/1518 9000 -SHRA BKN018

תצפיות ותחזיות מזג אוויר לגבי יותר מ- 4,000 שדות תעופה ברחבי העולם. דוחות METAR ו- TAF.

התחנות הזמינות מסומנות בנקודות צהובות ואדומות על גבי המפה.

העבר את העכבר לנקודה הצבעונית על מנת לראות את שם התחנה.

לאחר מכן, לחץ כדי לראות את תוכן ואת תחזיות מזג האוויר.

כדי לשנות את המפה: לחץ על הכפתורים הירוקים עם הפלוס השחור כדי להתקרב; על הכפתור הירוק עם המקף כדי להתרחק; או בחיצים הירוקים למפות סמוכות.


METAR-TAF: